ADDS TAF Board (Experimental) INFO Settings
IDs: Format: Expanded Condensed

KPIT - Pittsburgh Intl, PA, US

Issued at 1120 UTC 01 Jul 2016
Updated at 1134 UTC 01 Jul 2016
Time1051Z 01/12Z 01/13Z 01/14Z 01/15Z 01/16Z 01/17Z 01/18Z 01/19Z 01/20Z 01/21Z 01/22Z 01/23Z 02/00Z
Type OBS PRVL PRVL PRVL PRVL PRVL PRVL PRVL PRVL PRVL PRVL PRVL PRVL PRVL
VIS 10 >6 >6 >6 >6 >6 >6 >6 >6 >6 >6 >6 >6 >6
CIG 140 100 100 100 60 60 60 60 60 60 -- -- -- --
Cover OVC BKN BKN BKN BKN BKN BKN BKN BKN BKN SCT SCT SCT SCT
FltCat VFR VFR VFR VFR VFR VFR VFR VFR VFR VFR VFR VFR VFR VFR
WX -- -- -- -- VCSH VCSH VCSH VCSH VCSH VCSH -- -- -- --
WDir 160 170 170 170 220 220 220 220 220 220 280 280 280 280
WSpd 3 4 4 4 8 8 8 8 8 8 8 8 8 8
WGst -- -- -- -- -- -- -- -- -- -- -- -- -- --
R10/28
XWnd -3 -4 -4 -4 -6 -6 -6 -6 -6 -6 1 1 1 1
HWnd 1 1 1 1 -5 -5 -5 -5 -5 -5 -8 -8 -8 -8
R14/32
XWnd -1 -2 -2 -2 -8 -8 -8 -8 -8 -8 -5 -5 -5 -5
HWnd 3 3 3 3 1 1 1 1 1 1 -6 -6 -6 -6

Raw TAF
KPIT 011120Z 0112/0218 17004KT P6SM BKN100
  FM011500 22008KT P6SM VCSH BKN060
  FM012100 28008KT P6SM SCT050


Raw METAR
KPIT 011051Z 16003KT 10SM FEW075 BKN140 OVC220 15/11 A2995 RMK AO2 SLP144 T01500111
KPIT 010951Z 00000KT 10SM BKN140 OVC220 14/11 A2995 RMK AO2 SLP142 T01440111
KPIT 010851Z 00000KT 10SM BKN150 OVC220 16/11 A2995 RMK AO2 SLP142 T01560111 56012

METAR Board
Radar Display
Forecast Discussion

TAF Board Legend

Potential Impact
Threat None Slight Moderate High
Visibility (sm) ≥5.1 5.1>X≥3 3>X≥1 <1
Ceiling (100 ft) ≥30.1 30.1>X≥10 10>X≥5 <5
Wind Speed (kt) <10 10≤X<20 20≤X<30 ≥30
Wind Gust (kt) <15 15≤X<25 25≤X<35 ≥35
Weather No Wx Reported VCTS,-TS,-FZRA,SN TS,FZRA +TS,+FZRA,+SN